sensor_id;sensor_type;location;lat;lon;timestamp;pressure;altitude;pressure_sealevel;temperature;humidity
69751;BME280;57335;52.288;6.056;2024-03-07T00:01:39;102658.66;;;2.53;100.00
69751;BME280;57335;52.288;6.056;2024-03-07T00:04:06;102670.03;;;2.50;100.00
69751;BME280;57335;52.288;6.056;2024-03-07T00:06:33;102661.78;;;2.45;100.00
69751;BME280;57335;52.288;6.056;2024-03-07T00:08:59;102661.25;;;2.40;100.00
69751;BME280;57335;52.288;6.056;2024-03-07T00:11:26;102659.91;;;2.34;100.00
69751;BME280;57335;52.288;6.056;2024-03-07T00:13:52;102654.97;;;2.31;100.00
69751;BME280;57335;52.288;6.056;2024-03-07T00:16:19;102663.78;;;2.29;100.00
69751;BME280;57335;52.288;6.056;2024-03-07T00:18:46;102657.91;;;2.27;100.00
69751;BME280;57335;52.288;6.056;2024-03-07T00:21:13;102664.09;;;2.24;100.00
69751;BME280;57335;52.288;6.056;2024-03-07T00:23:40;102655.72;;;2.21;100.00
69751;BME280;57335;52.288;6.056;2024-03-07T00:26:06;102668.03;;;2.17;100.00
69751;BME280;57335;52.288;6.056;2024-03-07T00:28:34;102667.50;;;2.12;100.00
69751;BME280;57335;52.288;6.056;2024-03-07T00:31:05;102664.44;;;2.07;100.00
69751;BME280;57335;52.288;6.056;2024-03-07T00:33:33;102664.72;;;2.02;100.00
69751;BME280;57335;52.288;6.056;2024-03-07T00:36:20;102668.47;;;1.98;100.00
69751;BME280;57335;52.288;6.056;2024-03-07T00:38:48;102664.66;;;1.91;100.00
69751;BME280;57335;52.288;6.056;2024-03-07T00:41:14;102671.56;;;1.90;100.00
69751;BME280;57335;52.288;6.056;2024-03-07T00:43:43;102662.34;;;1.86;100.00
69751;BME280;57335;52.288;6.056;2024-03-07T00:46:10;102670.44;;;1.82;100.00
69751;BME280;57335;52.288;6.056;2024-03-07T00:48:37;102667.53;;;1.73;100.00
69751;BME280;57335;52.288;6.056;2024-03-07T00:51:04;102666.81;;;1.71;100.00
69751;BME280;57335;52.288;6.056;2024-03-07T00:53:30;102665.84;;;1.72;100.00
69751;BME280;57335;52.288;6.056;2024-03-07T00:55:57;102672.88;;;1.70;100.00
69751;BME280;57335;52.288;6.056;2024-03-07T00:58:24;102662.06;;;1.65;100.00
69751;BME280;57335;52.288;6.056;2024-03-07T01:00:50;102664.53;;;1.67;100.00
69751;BME280;57335;52.288;6.056;2024-03-07T01:03:17;102662.88;;;1.66;100.00
69751;BME280;57335;52.288;6.056;2024-03-07T01:05:43;102660.19;;;1.67;100.00
69751;BME280;57335;52.288;6.056;2024-03-07T01:08:10;102654.06;;;1.68;100.00
69751;BME280;57335;52.288;6.056;2024-03-07T01:10:37;102666.72;;;1.73;100.00
69751;BME280;57335;52.288;6.056;2024-03-07T01:13:04;102657.91;;;1.75;100.00
69751;BME280;57335;52.288;6.056;2024-03-07T01:15:32;102672.91;;;1.83;100.00
69751;BME280;57335;52.288;6.056;2024-03-07T01:17:59;102669.28;;;1.86;100.00
69751;BME280;57335;52.288;6.056;2024-03-07T01:20:25;102668.16;;;1.90;100.00
69751;BME280;57335;52.288;6.056;2024-03-07T01:22:52;102656.66;;;1.94;100.00
69751;BME280;57335;52.288;6.056;2024-03-07T01:25:19;102661.13;;;2.05;100.00
69751;BME280;57335;52.288;6.056;2024-03-07T01:27:45;102655.41;;;2.12;100.00
69751;BME280;57335;52.288;6.056;2024-03-07T01:30:14;102658.72;;;2.14;100.00
69751;BME280;57335;52.288;6.056;2024-03-07T01:32:40;102652.09;;;2.10;100.00
69751;BME280;57335;52.288;6.056;2024-03-07T01:35:07;102649.00;;;2.05;100.00
69751;BME280;57335;52.288;6.056;2024-03-07T01:37:35;102651.69;;;2.04;100.00
69751;BME280;57335;52.288;6.056;2024-03-07T01:40:03;102651.28;;;2.10;100.00
69751;BME280;57335;52.288;6.056;2024-03-07T01:42:31;102646.72;;;2.13;100.00
69751;BME280;57335;52.288;6.056;2024-03-07T01:44:58;102644.47;;;2.09;100.00
69751;BME280;57335;52.288;6.056;2024-03-07T01:47:25;102648.38;;;2.14;100.00
69751;BME280;57335;52.288;6.056;2024-03-07T01:49:52;102647.13;;;2.20;100.00
69751;BME280;57335;52.288;6.056;2024-03-07T01:52:19;102653.00;;;2.22;100.00
69751;BME280;57335;52.288;6.056;2024-03-07T01:54:46;102648.56;;;2.24;100.00
69751;BME280;57335;52.288;6.056;2024-03-07T01:57:15;102645.78;;;2.27;100.00
69751;BME280;57335;52.288;6.056;2024-03-07T01:59:43;102654.88;;;2.33;100.00
69751;BME280;57335;52.288;6.056;2024-03-07T02:02:10;102640.50;;;2.29;100.00
69751;BME280;57335;52.288;6.056;2024-03-07T02:04:37;102648.84;;;2.32;100.00
69751;BME280;57335;52.288;6.056;2024-03-07T02:07:03;102644.63;;;2.31;100.00
69751;BME280;57335;52.288;6.056;2024-03-07T02:09:30;102638.19;;;2.37;100.00
69751;BME280;57335;52.288;6.056;2024-03-07T02:11:57;102641.28;;;2.42;100.00
69751;BME280;57335;52.288;6.056;2024-03-07T02:14:23;102646.44;;;2.42;100.00
69751;BME280;57335;52.288;6.056;2024-03-07T02:16:50;102641.72;;;2.36;100.00
69751;BME280;57335;52.288;6.056;2024-03-07T02:19:16;102639.56;;;2.30;100.00
69751;BME280;57335;52.288;6.056;2024-03-07T02:21:44;102633.47;;;2.31;100.00
69751;BME280;57335;52.288;6.056;2024-03-07T02:24:10;102634.28;;;2.31;100.00
69751;BME280;57335;52.288;6.056;2024-03-07T02:26:37;102628.47;;;2.28;100.00
69751;BME280;57335;52.288;6.056;2024-03-07T02:29:06;102632.56;;;2.19;100.00
69751;BME280;57335;52.288;6.056;2024-03-07T02:31:32;102630.06;;;2.17;100.00
69751;BME280;57335;52.288;6.056;2024-03-07T02:34:03;102628.72;;;2.12;100.00
69751;BME280;57335;52.288;6.056;2024-03-07T02:36:30;102626.22;;;2.10;100.00
69751;BME280;57335;52.288;6.056;2024-03-07T02:38:57;102630.59;;;2.10;100.00
69751;BME280;57335;52.288;6.056;2024-03-07T02:41:24;102613.63;;;2.06;100.00
69751;BME280;57335;52.288;6.056;2024-03-07T02:43:51;102614.69;;;2.03;100.00
69751;BME280;57335;52.288;6.056;2024-03-07T02:46:19;102623.59;;;1.99;100.00
69751;BME280;57335;52.288;6.056;2024-03-07T02:48:45;102621.41;;;1.93;100.00
69751;BME280;57335;52.288;6.056;2024-03-07T02:51:12;102624.44;;;1.87;100.00
69751;BME280;57335;52.288;6.056;2024-03-07T02:53:39;102620.59;;;1.79;100.00
69751;BME280;57335;52.288;6.056;2024-03-07T02:56:05;102621.00;;;1.73;100.00
69751;BME280;57335;52.288;6.056;2024-03-07T02:58:35;102613.66;;;1.67;100.00
69751;BME280;57335;52.288;6.056;2024-03-07T03:01:02;102613.88;;;1.64;100.00
69751;BME280;57335;52.288;6.056;2024-03-07T03:03:30;102614.09;;;1.61;100.00
69751;BME280;57335;52.288;6.056;2024-03-07T03:05:59;102609.97;;;1.58;100.00
69751;BME280;57335;52.288;6.056;2024-03-07T03:08:26;102609.97;;;1.58;100.00
69751;BME280;57335;52.288;6.056;2024-03-07T03:10:55;102608.91;;;1.61;100.00
69751;BME280;57335;52.288;6.056;2024-03-07T03:13:24;102612.84;;;1.67;100.00
69751;BME280;57335;52.288;6.056;2024-03-07T03:15:54;102604.06;;;1.69;100.00
69751;BME280;57335;52.288;6.056;2024-03-07T03:18:22;102603.53;;;1.77;100.00
69751;BME280;57335;52.288;6.056;2024-03-07T03:20:50;102597.84;;;1.85;100.00
69751;BME280;57335;52.288;6.056;2024-03-07T03:23:17;102596.91;;;1.86;100.00
69751;BME280;57335;52.288;6.056;2024-03-07T03:25:47;102601.25;;;1.85;100.00
69751;BME280;57335;52.288;6.056;2024-03-07T03:28:17;102596.19;;;1.84;100.00
69751;BME280;57335;52.288;6.056;2024-03-07T03:30:47;102599.19;;;1.77;100.00
69751;BME280;57335;52.288;6.056;2024-03-07T03:33:14;102602.09;;;1.73;100.00
69751;BME280;57335;52.288;6.056;2024-03-07T03:35:41;102589.47;;;1.68;100.00
69751;BME280;57335;52.288;6.056;2024-03-07T03:38:08;102596.50;;;1.66;100.00
69751;BME280;57335;52.288;6.056;2024-03-07T03:40:35;102596.72;;;1.63;100.00
69751;BME280;57335;52.288;6.056;2024-03-07T03:43:02;102599.63;;;1.58;100.00
69751;BME280;57335;52.288;6.056;2024-03-07T03:45:29;102597.13;;;1.57;100.00
69751;BME280;57335;52.288;6.056;2024-03-07T03:47:55;102604.78;;;1.58;100.00
69751;BME280;57335;52.288;6.056;2024-03-07T03:50:22;102599.41;;;1.62;100.00
69751;BME280;57335;52.288;6.056;2024-03-07T03:52:52;102597.63;;;1.62;100.00
69751;BME280;57335;52.288;6.056;2024-03-07T03:55:19;102597.53;;;1.64;100.00
69751;BME280;57335;52.288;6.056;2024-03-07T03:57:47;102598.25;;;1.66;100.00
69751;BME280;57335;52.288;6.056;2024-03-07T04:00:14;102599.19;;;1.65;100.00
69751;BME280;57335;52.288;6.056;2024-03-07T04:02:42;102598.47;;;1.63;100.00
69751;BME280;57335;52.288;6.056;2024-03-07T04:05:10;102600.44;;;1.59;100.00
69751;BME280;57335;52.288;6.056;2024-03-07T04:07:38;102594.66;;;1.55;100.00
69751;BME280;57335;52.288;6.056;2024-03-07T04:10:05;102594.66;;;1.55;100.00
69751;BME280;57335;52.288;6.056;2024-03-07T04:12:35;102590.28;;;1.56;100.00
69751;BME280;57335;52.288;6.056;2024-03-07T04:15:08;102583.41;;;1.56;100.00
69751;BME280;57335;52.288;6.056;2024-03-07T04:17:35;102580.69;;;1.58;100.00
69751;BME280;57335;52.288;6.056;2024-03-07T04:20:03;102584.84;;;1.61;100.00
69751;BME280;57335;52.288;6.056;2024-03-07T04:22:34;102581.41;;;1.60;100.00
69751;BME280;57335;52.288;6.056;2024-03-07T04:25:02;102581.41;;;1.60;100.00
69751;BME280;57335;52.288;6.056;2024-03-07T04:27:28;102581.81;;;1.54;100.00
69751;BME280;57335;52.288;6.056;2024-03-07T04:29:55;102580.28;;;1.51;100.00
69751;BME280;57335;52.288;6.056;2024-03-07T04:32:22;102577.28;;;1.45;100.00
69751;BME280;57335;52.288;6.056;2024-03-07T04:34:49;102581.28;;;1.36;100.00
69751;BME280;57335;52.288;6.056;2024-03-07T04:37:16;102587.09;;;1.27;100.00
69751;BME280;57335;52.288;6.056;2024-03-07T04:39:43;102584.28;;;1.17;100.00
69751;BME280;57335;52.288;6.056;2024-03-07T04:42:09;102583.25;;;1.07;100.00
69751;BME280;57335;52.288;6.056;2024-03-07T04:44:36;102587.88;;;1.02;100.00
69751;BME280;57335;52.288;6.056;2024-03-07T04:47:04;102584.66;;;0.98;100.00
69751;BME280;57335;52.288;6.056;2024-03-07T04:49:32;102576.28;;;0.94;100.00
69751;BME280;57335;52.288;6.056;2024-03-07T04:52:00;102584.44;;;0.88;100.00
69751;BME280;57335;52.288;6.056;2024-03-07T04:54:28;102580.28;;;0.86;100.00
69751;BME280;57335;52.288;6.056;2024-03-07T04:56:55;102589.06;;;0.83;100.00
69751;BME280;57335;52.288;6.056;2024-03-07T04:59:22;102596.97;;;0.80;100.00
69751;BME280;57335;52.288;6.056;2024-03-07T05:01:49;102591.94;;;0.78;100.00
69751;BME280;57335;52.288;6.056;2024-03-07T05:04:17;102593.78;;;0.76;100.00
69751;BME280;57335;52.288;6.056;2024-03-07T05:06:44;102599.06;;;0.75;100.00
69751;BME280;57335;52.288;6.056;2024-03-07T05:09:14;102594.78;;;0.74;100.00
69751;BME280;57335;52.288;6.056;2024-03-07T05:11:52;102592.44;;;0.71;100.00
69751;BME280;57335;52.288;6.056;2024-03-07T05:14:19;102594.06;;;0.72;100.00
69751;BME280;57335;52.288;6.056;2024-03-07T05:16:47;102602.53;;;0.74;100.00
69751;BME280;57335;52.288;6.056;2024-03-07T05:19:32;102603.00;;;0.81;100.00
69751;BME280;57335;52.288;6.056;2024-03-07T05:22:00;102596.72;;;0.85;100.00
69751;BME280;57335;52.288;6.056;2024-03-07T05:24:27;102600.53;;;0.92;100.00
69751;BME280;57335;52.288;6.056;2024-03-07T05:26:53;102598.59;;;0.95;100.00
69751;BME280;57335;52.288;6.056;2024-03-07T05:29:20;102599.13;;;1.01;100.00
69751;BME280;57335;52.288;6.056;2024-03-07T05:31:47;102600.78;;;1.02;100.00
69751;BME280;57335;52.288;6.056;2024-03-07T05:34:15;102595.41;;;1.05;100.00
69751;BME280;57335;52.288;6.056;2024-03-07T05:36:46;102595.19;;;1.08;100.00
69751;BME280;57335;52.288;6.056;2024-03-07T05:39:14;102594.19;;;1.10;100.00
69751;BME280;57335;52.288;6.056;2024-03-07T05:41:43;102596.78;;;1.10;100.00
69751;BME280;57335;52.288;6.056;2024-03-07T05:44:12;102595.03;;;1.11;100.00
69751;BME280;57335;52.288;6.056;2024-03-07T05:46:40;102594.94;;;1.12;100.00
69751;BME280;57335;52.288;6.056;2024-03-07T05:49:15;102595.03;;;1.11;100.00
69751;BME280;57335;52.288;6.056;2024-03-07T05:51:43;102599.38;;;1.10;100.00
69751;BME280;57335;52.288;6.056;2024-03-07T05:54:11;102598.09;;;1.16;100.00
69751;BME280;57335;52.288;6.056;2024-03-07T05:56:40;102605.03;;;1.15;100.00
69751;BME280;57335;52.288;6.056;2024-03-07T05:59:08;102599.88;;;1.15;100.00
69751;BME280;57335;52.288;6.056;2024-03-07T06:01:38;102603.41;;;1.14;100.00
69751;BME280;57335;52.288;6.056;2024-03-07T06:04:06;102602.38;;;1.17;100.00
69751;BME280;57335;52.288;6.056;2024-03-07T06:06:34;102592.84;;;1.17;100.00
69751;BME280;57335;52.288;6.056;2024-03-07T06:09:02;102603.00;;;1.21;100.00
69751;BME280;57335;52.288;6.056;2024-03-07T06:11:38;102598.56;;;1.23;100.00
69751;BME280;57335;52.288;6.056;2024-03-07T06:14:06;102595.03;;;1.24;100.00
69751;BME280;57335;52.288;6.056;2024-03-07T06:16:36;102588.81;;;1.26;100.00
69751;BME280;57335;52.288;6.056;2024-03-07T06:19:03;102595.44;;;1.30;100.00
69751;BME280;57335;52.288;6.056;2024-03-07T06:21:35;102600.41;;;1.33;100.00
69751;BME280;57335;52.288;6.056;2024-03-07T06:24:02;102597.66;;;1.36;100.00
69751;BME280;57335;52.288;6.056;2024-03-07T06:26:33;102599.41;;;1.49;100.00
69751;BME280;57335;52.288;6.056;2024-03-07T06:29:26;102607.88;;;1.64;100.00
69751;BME280;57335;52.288;6.056;2024-03-07T06:31:54;102606.22;;;1.75;100.00
69751;BME280;57335;52.288;6.056;2024-03-07T06:34:21;102612.22;;;1.89;100.00
69751;BME280;57335;52.288;6.056;2024-03-07T06:36:47;102604.53;;;2.00;100.00
69751;BME280;57335;52.288;6.056;2024-03-07T06:39:14;102607.41;;;2.21;100.00
69751;BME280;57335;52.288;6.056;2024-03-07T06:41:40;102619.16;;;2.38;100.00
69751;BME280;57335;52.288;6.056;2024-03-07T06:44:07;102604.69;;;2.59;100.00
69751;BME280;57335;52.288;6.056;2024-03-07T06:46:36;102604.06;;;2.80;100.00
69751;BME280;57335;52.288;6.056;2024-03-07T06:49:03;102603.22;;;3.04;100.00
69751;BME280;57335;52.288;6.056;2024-03-07T06:51:32;102600.59;;;3.28;100.00
69751;BME280;57335;52.288;6.056;2024-03-07T06:53:59;102612.41;;;3.54;100.00
69751;BME280;57335;52.288;6.056;2024-03-07T06:56:26;102605.72;;;3.74;100.00
69751;BME280;57335;52.288;6.056;2024-03-07T06:58:53;102604.41;;;4.03;100.00
69751;BME280;57335;52.288;6.056;2024-03-07T07:01:19;102616.53;;;4.25;100.00
69751;BME280;57335;52.288;6.056;2024-03-07T07:03:46;102615.44;;;4.50;100.00
69751;BME280;57335;52.288;6.056;2024-03-07T07:06:15;102619.47;;;4.75;100.00
69751;BME280;57335;52.288;6.056;2024-03-07T07:08:43;102624.16;;;4.92;100.00
69751;BME280;57335;52.288;6.056;2024-03-07T07:11:11;102619.81;;;5.14;100.00
69751;BME280;57335;52.288;6.056;2024-03-07T07:13:38;102622.28;;;5.36;100.00
69751;BME280;57335;52.288;6.056;2024-03-07T07:16:05;102619.53;;;5.59;100.00
69751;BME280;57335;52.288;6.056;2024-03-07T07:18:32;102614.16;;;5.82;100.00
69751;BME280;57335;52.288;6.056;2024-03-07T07:20:59;102612.22;;;6.05;100.00
69751;BME280;57335;52.288;6.056;2024-03-07T07:23:28;102621.34;;;6.30;100.00
69751;BME280;57335;52.288;6.056;2024-03-07T07:25:55;102622.72;;;6.53;100.00
69751;BME280;57335;52.288;6.056;2024-03-07T07:28:21;102623.44;;;6.75;100.00
69751;BME280;57335;52.288;6.056;2024-03-07T07:30:48;102620.97;;;6.93;100.00
69751;BME280;57335;52.288;6.056;2024-03-07T07:33:15;102619.19;;;6.93;99.49
69751;BME280;57335;52.288;6.056;2024-03-07T07:35:42;102618.25;;;7.04;98.94
69751;BME280;57335;52.288;6.056;2024-03-07T07:38:09;102627.44;;;6.89;97.16
69751;BME280;57335;52.288;6.056;2024-03-07T07:40:38;102623.59;;;7.03;99.13
69751;BME280;57335;52.288;6.056;2024-03-07T07:43:05;102623.31;;;7.06;96.60
69751;BME280;57335;52.288;6.056;2024-03-07T07:45:32;102618.50;;;7.11;95.47
69751;BME280;57335;52.288;6.056;2024-03-07T07:48:02;102612.47;;;7.10;97.98
69751;BME280;57335;52.288;6.056;2024-03-07T07:50:29;102610.66;;;7.21;94.97
69751;BME280;57335;52.288;6.056;2024-03-07T07:52:57;102609.28;;;7.36;95.21
69751;BME280;57335;52.288;6.056;2024-03-07T07:55:25;102614.75;;;7.43;97.01
69751;BME280;57335;52.288;6.056;2024-03-07T07:57:59;102613.06;;;7.51;94.93
69751;BME280;57335;52.288;6.056;2024-03-07T08:00:28;102609.00;;;7.76;93.05
69751;BME280;57335;52.288;6.056;2024-03-07T08:03:05;102605.38;;;7.87;90.93
69751;BME280;57335;52.288;6.056;2024-03-07T08:05:37;102601.69;;;7.90;92.14
69751;BME280;57335;52.288;6.056;2024-03-07T08:08:08;102605.06;;;8.00;92.04
69751;BME280;57335;52.288;6.056;2024-03-07T08:10:38;102604.19;;;8.09;90.57
69751;BME280;57335;52.288;6.056;2024-03-07T08:13:07;102604.81;;;8.21;92.47
69751;BME280;57335;52.288;6.056;2024-03-07T08:15:34;102597.03;;;8.29;90.72
69751;BME280;57335;52.288;6.056;2024-03-07T08:18:01;102599.34;;;8.60;91.16
69751;BME280;57335;52.288;6.056;2024-03-07T08:20:28;102602.03;;;8.86;89.34
69751;BME280;57335;52.288;6.056;2024-03-07T08:22:57;102596.56;;;8.97;85.08
69751;BME280;57335;52.288;6.056;2024-03-07T08:25:27;102595.22;;;8.93;84.23
69751;BME280;57335;52.288;6.056;2024-03-07T08:27:57;102598.75;;;8.84;85.44
69751;BME280;57335;52.288;6.056;2024-03-07T08:30:24;102596.03;;;8.94;86.06
69751;BME280;57335;52.288;6.056;2024-03-07T08:32:53;102598.97;;;9.17;85.91
69751;BME280;57335;52.288;6.056;2024-03-07T08:35:21;102597.22;;;9.26;82.78
69751;BME280;57335;52.288;6.056;2024-03-07T08:37:49;102583.72;;;9.30;82.02
69751;BME280;57335;52.288;6.056;2024-03-07T08:40:28;102590.22;;;9.26;83.39
69751;BME280;57335;52.288;6.056;2024-03-07T08:42:59;102586.00;;;9.33;82.60
69751;BME280;57335;52.288;6.056;2024-03-07T08:45:26;102583.06;;;9.28;83.14
69751;BME280;57335;52.288;6.056;2024-03-07T08:47:55;102587.00;;;9.32;81.50
69751;BME280;57335;52.288;6.056;2024-03-07T08:50:25;102586.19;;;9.40;81.93
69751;BME280;57335;52.288;6.056;2024-03-07T08:52:53;102587.13;;;9.57;82.50
69751;BME280;57335;52.288;6.056;2024-03-07T08:55:22;102587.84;;;9.75;80.85
69751;BME280;57335;52.288;6.056;2024-03-07T08:57:49;102596.25;;;9.87;80.31
69751;BME280;57335;52.288;6.056;2024-03-07T09:00:17;102581.53;;;9.86;79.92
69751;BME280;57335;52.288;6.056;2024-03-07T09:02:53;102584.31;;;9.85;79.53
69751;BME280;57335;52.288;6.056;2024-03-07T09:05:23;102574.13;;;9.82;78.61
69751;BME280;57335;52.288;6.056;2024-03-07T09:07:51;102578.72;;;9.88;81.10
69751;BME280;57335;52.288;6.056;2024-03-07T09:10:19;102572.22;;;10.00;78.03
69751;BME280;57335;52.288;6.056;2024-03-07T09:12:46;102566.31;;;9.90;77.03
69751;BME280;57335;52.288;6.056;2024-03-07T09:15:16;102573.53;;;10.04;79.57
69751;BME280;57335;52.288;6.056;2024-03-07T09:17:44;102568.00;;;10.07;78.07
69751;BME280;57335;52.288;6.056;2024-03-07T09:20:11;102572.88;;;10.02;78.38
69751;BME280;57335;52.288;6.056;2024-03-07T09:22:42;102576.78;;;9.90;78.44
69751;BME280;57335;52.288;6.056;2024-03-07T09:25:10;102568.78;;;9.91;79.11
69751;BME280;57335;52.288;6.056;2024-03-07T09:27:37;102562.38;;;9.94;78.58
69751;BME280;57335;52.288;6.056;2024-03-07T09:30:04;102556.19;;;9.95;77.60
69751;BME280;57335;52.288;6.056;2024-03-07T09:32:31;102563.25;;;10.03;78.63
69751;BME280;57335;52.288;6.056;2024-03-07T09:35:00;102565.34;;;9.99;79.97
69751;BME280;57335;52.288;6.056;2024-03-07T09:37:27;102563.22;;;9.86;79.13
69751;BME280;57335;52.288;6.056;2024-03-07T09:39:54;102554.94;;;9.65;79.46
69751;BME280;57335;52.288;6.056;2024-03-07T09:42:21;102560.09;;;9.48;78.54
69751;BME280;57335;52.288;6.056;2024-03-07T09:44:50;102553.97;;;9.39;83.13
69751;BME280;57335;52.288;6.056;2024-03-07T09:47:18;102560.41;;;9.19;83.67
69751;BME280;57335;52.288;6.056;2024-03-07T09:49:46;102563.66;;;9.13;84.40
69751;BME280;57335;52.288;6.056;2024-03-07T09:52:13;102557.94;;;8.91;84.13
69751;BME280;57335;52.288;6.056;2024-03-07T09:54:41;102558.50;;;8.77;88.59
69751;BME280;57335;52.288;6.056;2024-03-07T09:57:09;102559.69;;;8.65;83.76
69751;BME280;57335;52.288;6.056;2024-03-07T09:59:38;102554.16;;;8.50;85.22
69751;BME280;57335;52.288;6.056;2024-03-07T10:02:08;102560.72;;;8.36;86.38
69751;BME280;57335;52.288;6.056;2024-03-07T10:07:07;102566.25;;;8.05;87.33
69751;BME280;57335;52.288;6.056;2024-03-07T10:09:39;102561.00;;;7.87;86.71
69751;BME280;57335;52.288;6.056;2024-03-07T10:12:07;102562.22;;;7.65;90.99
69751;BME280;57335;52.288;6.056;2024-03-07T10:14:36;102557.88;;;7.56;92.07
69751;BME280;57335;52.288;6.056;2024-03-07T10:17:05;102566.31;;;7.40;90.64
69751;BME280;57335;52.288;6.056;2024-03-07T10:19:32;102558.50;;;7.30;91.31
69751;BME280;57335;52.288;6.056;2024-03-07T10:21:59;102567.94;;;7.31;93.54
69751;BME280;57335;52.288;6.056;2024-03-07T10:24:28;102558.09;;;7.25;95.79
69751;BME280;57335;52.288;6.056;2024-03-07T10:26:54;102555.47;;;7.25;97.01
69751;BME280;57335;52.288;6.056;2024-03-07T10:29:24;102545.91;;;7.26;96.23
69751;BME280;57335;52.288;6.056;2024-03-07T10:31:51;102550.69;;;7.30;96.70
69751;BME280;57335;52.288;6.056;2024-03-07T10:34:33;102551.72;;;7.37;96.60
69751;BME280;57335;52.288;6.056;2024-03-07T10:37:00;102549.94;;;7.48;95.58
69751;BME280;57335;52.288;6.056;2024-03-07T10:39:30;102539.09;;;7.43;94.56
69751;BME280;57335;52.288;6.056;2024-03-07T10:42:00;102528.44;;;7.36;95.97
69751;BME280;57335;52.288;6.056;2024-03-07T10:44:34;102539.78;;;7.45;97.37
69751;BME280;57335;52.288;6.056;2024-03-07T10:47:09;102524.13;;;7.45;94.49
69751;BME280;57335;52.288;6.056;2024-03-07T10:49:44;102529.06;;;7.48;96.79
69751;BME280;57335;52.288;6.056;2024-03-07T10:52:20;102530.91;;;7.65;97.92
69751;BME280;57335;52.288;6.056;2024-03-07T10:57:50;102521.75;;;7.79;97.20
69751;BME280;57335;52.288;6.056;2024-03-07T11:00:17;102515.97;;;7.85;97.45
69751;BME280;57335;52.288;6.056;2024-03-07T11:02:58;102513.44;;;7.93;93.82
69751;BME280;57335;52.288;6.056;2024-03-07T11:05:26;102515.63;;;7.98;96.38
69751;BME280;57335;52.288;6.056;2024-03-07T11:08:00;102505.19;;;7.98;94.85
69751;BME280;57335;52.288;6.056;2024-03-07T11:10:31;102515.31;;;8.01;96.72
69751;BME280;57335;52.288;6.056;2024-03-07T11:12:59;102499.66;;;8.01;92.71
69751;BME280;57335;52.288;6.056;2024-03-07T11:15:27;102491.66;;;7.85;96.39
69751;BME280;57335;52.288;6.056;2024-03-07T11:17:54;102512.69;;;8.01;95.18
69751;BME280;57335;52.288;6.056;2024-03-07T11:20:42;102508.06;;;7.95;98.14
69751;BME280;57335;52.288;6.056;2024-03-07T11:23:25;102508.81;;;8.05;92.70
69751;BME280;57335;52.288;6.056;2024-03-07T11:26:06;102509.28;;;8.01;95.34
69751;BME280;57335;52.288;6.056;2024-03-07T11:28:41;102504.59;;;8.04;94.24
69751;BME280;57335;52.288;6.056;2024-03-07T11:31:25;102505.41;;;8.05;93.90
69751;BME280;57335;52.288;6.056;2024-03-07T11:34:15;102504.72;;;8.03;94.64
69751;BME280;57335;52.288;6.056;2024-03-07T11:36:43;102495.03;;;7.95;96.66
69751;BME280;57335;52.288;6.056;2024-03-07T11:39:44;102510.91;;;8.02;95.44
69751;BME280;57335;52.288;6.056;2024-03-07T11:42:19;102505.19;;;7.98;97.15
69751;BME280;57335;52.288;6.056;2024-03-07T11:44:46;102501.38;;;7.92;97.87
69751;BME280;57335;52.288;6.056;2024-03-07T11:47:13;102491.44;;;7.96;99.27
69751;BME280;57335;52.288;6.056;2024-03-07T11:49:39;102487.56;;;7.82;99.45
69751;BME280;57335;52.288;6.056;2024-03-07T11:52:06;102463.75;;;7.85;96.94
69751;BME280;57335;52.288;6.056;2024-03-07T11:54:39;102475.41;;;7.91;96.64
69751;BME280;57335;52.288;6.056;2024-03-07T11:57:14;102472.78;;;7.91;99.26
69751;BME280;57335;52.288;6.056;2024-03-07T11:59:42;102470.84;;;7.93;99.55
69751;BME280;57335;52.288;6.056;2024-03-07T12:02:12;102469.72;;;7.95;96.74
69751;BME280;57335;52.288;6.056;2024-03-07T12:04:41;102459.28;;;7.95;95.66
69751;BME280;57335;52.288;6.056;2024-03-07T12:07:08;102466.44;;;8.11;97.51
69751;BME280;57335;52.288;6.056;2024-03-07T12:09:38;102453.56;;;8.10;97.62
69751;BME280;57335;52.288;6.056;2024-03-07T12:12:05;102457.13;;;8.09;100.00
69751;BME280;57335;52.288;6.056;2024-03-07T12:14:33;102452.38;;;8.22;99.02
69751;BME280;57335;52.288;6.056;2024-03-07T12:17:03;102446.81;;;8.25;100.00
69751;BME280;57335;52.288;6.056;2024-03-07T12:19:33;102444.72;;;8.29;97.64
69751;BME280;57335;52.288;6.056;2024-03-07T12:22:03;102440.69;;;8.34;97.66
69751;BME280;57335;52.288;6.056;2024-03-07T12:24:30;102434.50;;;8.35;98.27
69751;BME280;57335;52.288;6.056;2024-03-07T12:27:10;102426.50;;;8.37;99.17
69751;BME280;57335;52.288;6.056;2024-03-07T12:29:39;102445.69;;;8.46;98.24
69751;BME280;57335;52.288;6.056;2024-03-07T12:32:06;102422.72;;;8.31;97.63
69751;BME280;57335;52.288;6.056;2024-03-07T12:34:52;102417.56;;;8.22;97.75
69751;BME280;57335;52.288;6.056;2024-03-07T12:37:19;102408.72;;;8.14;98.11
69751;BME280;57335;52.288;6.056;2024-03-07T12:39:53;102407.06;;;8.13;100.00
69751;BME280;57335;52.288;6.056;2024-03-07T12:42:28;102404.16;;;8.16;99.43
69751;BME280;57335;52.288;6.056;2024-03-07T12:44:57;102399.53;;;8.10;100.00
69751;BME280;57335;52.288;6.056;2024-03-07T12:47:26;102402.88;;;8.21;100.00
69751;BME280;57335;52.288;6.056;2024-03-07T12:49:52;102399.69;;;8.09;100.00
69751;BME280;57335;52.288;6.056;2024-03-07T12:52:19;102389.38;;;8.07;100.00
69751;BME280;57335;52.288;6.056;2024-03-07T12:54:45;102395.28;;;8.09;100.00
69751;BME280;57335;52.288;6.056;2024-03-07T12:57:14;102399.88;;;8.15;100.00
69751;BME280;57335;52.288;6.056;2024-03-07T12:59:41;102371.16;;;8.15;100.00
69751;BME280;57335;52.288;6.056;2024-03-07T13:02:11;102381.75;;;8.32;100.00
69751;BME280;57335;52.288;6.056;2024-03-07T13:04:39;102396.91;;;8.46;100.00
69751;BME280;57335;52.288;6.056;2024-03-07T13:07:09;102385.22;;;8.58;100.00